Etusivu
METAR-TAF:

METAR-TAF

Lentoasemat :

Baudette, Minnesota, Yhdysvallat

Leveyspiiri: 48-43-36N, Pituuspiiri: 094-36-44W, korkeus merenpinnasta: 330 m

Tämänhetkinen sää

Tämä raportti tehtiin 49 minuuttia sitten, kello 09.53 UTC
Tuuli 8 kn etelästä/kaakosta
Lämpötila -9°C
Kosteus 79%
Ilmanpaine 1009 hPa
Näkyvyys: 16.1 km
Pilvistä 1800 ft:n korkeudessa

METAR: KBDE 130953Z AUTO 16008KT 10SM OVC018 M09/M12 A2979 RMK AO2 SLP111 T10891117 $

Aika: 04:42 (10:42 UTC)


TAF: puuttuu

Säähavainnot ja -ennusteet yli 4000 lentoasemalta (METAR- ja TAF-raportit).

Käytössä olevat sääasemat on merkitty karttaan keltaisilla ja punaisilla pisteillä.

Aseta hiiri pisteen päälle nähdäksesi sääaseman nimen.

Klikkaa sitten nähdäksesi säähavainnot ja -ennusteet.

Kartan vaihtaminen: klikkaa mustalla rastilla varustettuja vihreitä pisteitä, niin voit zoomata sisään; viivalla varustettua vihreää pistettä, niin voit zoomata ulos tai vihreitä nuolia, niin pääset viereisille kartoille.


METAR-TAF: